Main page
Satellite images 10-day forecastsClimateMarine weather Cyclones Lightning AirportsFAQ Newsletter About
Weather : Europe Africa North America South America Asia Australia-Oceania Others
Languages Contact

Brussels, Belgium

Brussels Airport

latitude: 50-54N, longitude: 004-32E, elevation: 55 m


METAR: EBBR 020750Z VRB02KT CAVOK 18/10 Q1021 NOSIG
TAF: EBBR 020500Z 0206/0312 10002KT CAVOK BECMG 0305/0307 18010KT

Time: 10:14 (08:14 UTC)

Current weather observation

The report was made 24 minutes ago, at 07:50 UTC
Wind 2 kt from variable directions
Temperature 18°C
Humidity 59%
Pressure 1021 hPa
Visibility 10 km or more
no clouds below 1500 m and no cumulonimbus

Change units

Forecast

The report was made 3 hours and 14 minutes ago, at 05:00 UTC
Forecast valid from 02 at 06 UTC to 03 at 12 UTC
Wind 2 kt from the East
Visibility 10 km or more
no clouds below 1500 m and no cumulonimbus
Becoming
from 03 at 05 UTC to 03 at 07 UTC
Wind 10 kt from the South
The information on this site is subject to a disclaimer
Weather : Europe Africa North America South America Asia Australia-Oceania Others
Satellite images 10-day forecastsClimateMarine weather Cyclones Lightning AirportsFAQ Languages Contact Newsletter About